Time;durP1;ratioP1;P1;durP2;ratioP2;P2;SDS_P1;SDS_P2;PMS_P1;PMS_P2;Temp;Humidity;BMP_temperature;BMP_pressure;BME280_temperature;BME280_humidity;BME280_pressure;Samples;Min_cycle;Max_cycle;Signal;HPM_P1;HPM_P2
2022/01/22 00:00:03;;;;;;;21.77;4.78;;;6.60;99.90;;;;;;5003734;28;20042;-94
2022/01/22 00:02:28;;;;;;;18.20;4.35;;;6.60;99.90;;;;;;4999343;28;20463;-94
2022/01/22 00:04:54;;;;;;;17.77;4.32;;;6.60;99.90;;;;;;5002401;28;20041;-92
2022/01/22 00:07:19;;;;;;;17.98;4.15;;;6.60;99.90;;;;;;5001676;28;20257;-93
2022/01/22 00:09:51;;;;;;;19.38;4.70;;;6.60;99.90;;;;;;5002508;28;20037;-93
2022/01/22 00:12:29;;;;;;;17.42;4.82;;;6.60;99.90;;;;;;5001276;28;20058;-93
2022/01/22 00:14:55;;;;;;;16.98;4.53;;;6.60;99.90;;;;;;4986880;28;20462;-93
2022/01/22 00:17:21;;;;;;;19.25;4.50;;;6.60;99.90;;;;;;5000471;28;20077;-93
2022/01/22 00:19:46;;;;;;;16.05;4.50;;;6.60;99.90;;;;;;4998935;28;20107;-94
2022/01/22 00:22:12;;;;;;;14.45;4.28;;;6.60;99.90;;;;;;5009944;28;20487;-92
2022/01/22 00:24:39;;;;;;;16.70;4.28;;;6.60;99.90;;;;;;5003236;28;20569;-92
2022/01/22 00:27:05;;;;;;;19.58;4.22;;;6.60;99.90;;;;;;4987091;28;20113;-92
2022/01/22 00:29:31;;;;;;;18.13;4.22;;;6.60;99.90;;;;;;5001150;28;20031;-93
2022/01/22 00:31:57;;;;;;;13.57;3.70;;;6.70;99.90;;;;;;4995322;28;20054;-91
2022/01/22 00:34:23;;;;;;;16.42;4.22;;;6.60;99.90;;;;;;4989086;28;20117;-88
2022/01/22 00:36:48;;;;;;;16.65;3.60;;;6.70;99.90;;;;;;4988778;28;20476;-90
2022/01/22 00:39:14;;;;;;;16.52;3.70;;;6.70;99.90;;;;;;4988054;28;20050;-90
2022/01/22 00:41:40;;;;;;;14.40;4.78;;;6.70;99.90;;;;;;4991548;28;20046;-94
2022/01/22 00:44:05;;;;;;;15.88;3.40;;;6.70;99.90;;;;;;4979593;28;20038;-91
2022/01/22 00:46:31;;;;;;;14.48;3.60;;;6.70;99.90;;;;;;4980772;28;20070;-90
2022/01/22 00:48:57;;;;;;;14.18;3.63;;;6.70;99.90;;;;;;4977477;28;20057;-92
2022/01/22 00:51:23;;;;;;;18.20;4.60;;;6.70;99.90;;;;;;4971489;28;20087;-91
2022/01/22 00:53:49;;;;;;;16.38;3.83;;;6.70;99.90;;;;;;4969636;28;20059;-92
2022/01/22 00:56:15;;;;;;;14.05;3.75;;;6.70;99.90;;;;;;4996339;28;20042;-93
2022/01/22 00:58:41;;;;;;;21.02;4.70;;;6.70;99.90;;;;;;4995043;28;20045;-92
2022/01/22 01:01:06;;;;;;;17.95;4.22;;;6.70;99.90;;;;;;4980838;28;20038;-88
2022/01/22 01:03:34;;;;;;;19.17;4.75;;;6.70;99.90;;;;;;5010635;28;20042;-92
2022/01/22 01:06:04;;;;;;;18.33;5.13;;;6.70;99.90;;;;;;5015871;28;20018;-88
2022/01/22 01:08:33;;;;;;;18.45;4.65;;;6.80;99.90;;;;;;5007802;28;20100;-90
2022/01/22 01:10:58;;;;;;;22.38;4.85;;;6.70;99.90;;;;;;4994623;28;20135;-90
2022/01/22 01:13:26;;;;;;;17.05;3.97;;;6.80;99.90;;;;;;4995109;28;20062;-90
2022/01/22 01:16:14;;;;;;;16.58;4.38;;;6.70;99.90;;;;;;4997092;28;20502;-91
2022/01/22 01:32:27;;;;;;;15.68;4.53;;;6.80;99.90;;;;;;5012146;28;20050;-90
2022/01/22 01:34:53;;;;;;;15.60;3.80;;;6.80;99.90;;;;;;5008821;28;20076;-90
2022/01/22 01:37:19;;;;;;;14.90;3.75;;;6.80;99.90;;;;;;5014222;28;20127;-91
2022/01/22 01:39:48;;;;;;;16.35;4.03;;;6.80;99.90;;;;;;5003754;28;20080;-90
2022/01/22 01:42:20;;;;;;;15.40;3.63;;;6.80;99.90;;;;;;5005098;28;20049;-90
2022/01/22 01:44:45;;;;;;;16.38;4.13;;;6.80;99.90;;;;;;5011318;28;20045;-88
2022/01/22 01:47:15;;;;;;;13.23;3.60;;;6.80;99.90;;;;;;5013756;28;20136;-91
2022/01/22 01:49:41;;;;;;;16.65;3.97;;;6.90;99.90;;;;;;4996908;28;20402;-90
2022/01/22 01:52:12;;;;;;;11.95;3.53;;;6.90;99.90;;;;;;5002487;28;20048;-90
2022/01/22 01:59:50;;;;;;;14.85;3.95;;;6.90;99.90;;;;;;5004901;28;20061;-90
2022/01/22 02:02:16;;;;;;;15.65;4.07;;;6.90;99.90;;;;;;4995993;28;20472;-91
2022/01/22 02:04:42;;;;;;;13.48;3.80;;;6.90;99.90;;;;;;5005067;28;20121;-89
2022/01/22 02:07:08;;;;;;;15.63;4.38;;;6.90;99.90;;;;;;5005810;28;20048;-90
2022/01/22 02:09:35;;;;;;;14.23;3.95;;;6.90;99.90;;;;;;4989852;28;20164;-91
2022/01/22 02:12:07;;;;;;;17.20;4.45;;;6.90;99.90;;;;;;5004796;28;20052;-91
2022/01/22 02:25:17;;;;;;;18.48;4.43;;;7.00;99.90;;;;;;5006788;28;20064;-90
2022/01/22 02:27:43;;;;;;;14.68;3.75;;;7.00;99.90;;;;;;5005515;28;20486;-89
2022/01/22 02:30:09;;;;;;;12.40;3.50;;;7.00;99.90;;;;;;5022692;28;20558;-92
2022/01/22 02:33:05;;;;;;;16.83;3.65;;;7.00;99.90;;;;;;5005129;28;20125;-92
2022/01/22 02:35:38;;;;;;;14.50;3.58;;;7.00;99.90;;;;;;5006068;28;20042;-92
2022/01/22 02:38:13;;;;;;;11.82;3.17;;;7.00;99.90;;;;;;5005345;28;20052;-91
2022/01/22 02:40:45;;;;;;;10.20;2.80;;;7.00;99.90;;;;;;5006550;28;20112;-93
2022/01/22 02:43:11;;;;;;;11.77;3.20;;;7.00;99.90;;;;;;5003376;28;20127;-93
2022/01/22 02:45:43;;;;;;;9.77;2.90;;;7.00;99.90;;;;;;5004780;28;20045;-89
2022/01/22 02:48:09;;;;;;;12.88;2.88;;;7.00;99.90;;;;;;5005514;28;20520;-90
2022/01/22 02:50:34;;;;;;;17.80;3.08;;;7.00;99.90;;;;;;5005085;28;20053;-91
2022/01/22 02:53:08;;;;;;;10.70;2.60;;;7.00;99.90;;;;;;5005549;28;20128;-92
2022/01/22 02:55:34;;;;;;;10.65;2.50;;;7.00;99.90;;;;;;5005781;28;20060;-91
2022/01/22 02:58:00;;;;;;;13.05;2.85;;;7.00;99.90;;;;;;5011163;28;20037;-91
2022/01/22 03:00:26;;;;;;;11.60;2.75;;;7.00;99.90;;;;;;4995467;28;20033;-91
2022/01/22 03:02:52;;;;;;;9.15;2.20;;;7.00;99.90;;;;;;5011892;28;20195;-91
2022/01/22 03:05:19;;;;;;;7.90;2.05;;;7.00;99.90;;;;;;5009748;28;20478;-91
2022/01/22 03:07:49;;;;;;;10.48;2.55;;;7.00;99.90;;;;;;5004697;28;20045;-90
2022/01/22 03:10:19;;;;;;;11.93;2.78;;;7.00;99.90;;;;;;5004233;28;20049;-90
2022/01/22 03:12:48;;;;;;;13.35;2.80;;;7.00;99.90;;;;;;5007074;28;20042;-91
2022/01/22 03:18:01;;;;;;;;;;;7.00;99.90;;;;;;5010603;28;20061;-90
2022/01/22 03:27:19;;;;;;;10.80;2.55;;;7.00;99.90;;;;;;5012409;28;20046;-91
2022/01/22 03:28:54;;;;;;;10.80;2.30;;;7.00;99.90;;;;;;5004470;28;20038;-92
2022/01/22 03:31:20;;;;;;;11.18;2.40;;;7.00;99.90;;;;;;4992747;28;20089;-90
2022/01/22 03:33:45;;;;;;;8.27;2.20;;;7.00;99.90;;;;;;5005451;28;20081;-91
2022/01/22 03:36:11;;;;;;;8.40;2.38;;;7.00;99.90;;;;;;4994581;28;20037;-91
2022/01/22 03:38:37;;;;;;;8.95;2.40;;;7.00;99.90;;;;;;5010550;28;20045;-92
2022/01/22 03:41:03;;;;;;;16.05;3.00;;;7.00;99.90;;;;;;5010818;28;20042;-90
2022/01/22 03:43:29;;;;;;;12.85;2.85;;;7.00;99.90;;;;;;5023339;28;20544;-90
2022/01/22 03:45:54;;;;;;;9.98;3.47;;;7.00;99.90;;;;;;5007315;28;20053;-91
2022/01/22 03:48:20;;;;;;;8.82;2.03;;;7.00;99.90;;;;;;4995750;28;20042;-91
2022/01/22 03:50:46;;;;;;;10.60;2.33;;;7.00;99.90;;;;;;4991573;28;20054;-90
2022/01/22 03:53:11;;;;;;;11.32;2.45;;;7.00;99.90;;;;;;5012153;28;20042;-91
2022/01/22 03:58:03;;;;;;;7.90;1.90;;;7.00;99.90;;;;;;5011991;28;20049;-91
2022/01/22 04:00:28;;;;;;;9.10;2.25;;;7.00;99.90;;;;;;4993654;28;20087;-90
2022/01/22 04:05:50;;;;;;;7.63;2.08;;;7.00;99.90;;;;;;5008797;28;20041;-89
2022/01/22 04:08:18;;;;;;;8.50;2.10;;;7.00;99.90;;;;;;5010529;28;20107;-89
2022/01/22 04:10:44;;;;;;;11.45;2.10;;;7.00;99.90;;;;;;4994386;28;20041;-91
2022/01/22 04:13:13;;;;;;;11.13;2.65;;;7.00;99.90;;;;;;5010626;28;20124;-90
2022/01/22 04:15:40;;;;;;;7.80;2.00;;;7.00;99.90;;;;;;5007746;28;20056;-91
2022/01/22 04:29:03;;;;;;;7.05;2.28;;;6.90;99.90;;;;;;4981696;28;20049;-91
2022/01/22 04:31:29;;;;;;;10.95;2.70;;;6.90;99.90;;;;;;4980129;28;20046;-91
2022/01/22 04:33:54;;;;;;;10.73;2.50;;;6.90;99.90;;;;;;4971460;28;20042;-91
2022/01/22 04:36:20;;;;;;;8.45;2.60;;;7.00;99.90;;;;;;4985689;28;20053;-90
2022/01/22 04:38:46;;;;;;;10.35;2.67;;;6.90;99.90;;;;;;4984187;28;20050;-92
2022/01/22 04:41:11;;;;;;;8.73;2.30;;;6.90;99.90;;;;;;4984568;28;20038;-91
2022/01/22 04:43:39;;;;;;;10.52;2.50;;;6.90;99.90;;;;;;4974296;28;20046;-92
2022/01/22 04:46:25;;;;;;;9.27;2.13;;;6.90;99.90;;;;;;4972687;28;20158;-91
2022/01/22 04:56:48;;;;;;;9.68;2.63;;;6.90;99.90;;;;;;5007070;28;20054;-91
2022/01/22 04:59:14;;;;;;;8.70;2.40;;;6.90;99.90;;;;;;4986541;28;20038;-92
2022/01/22 05:01:40;;;;;;;8.05;2.17;;;6.90;99.90;;;;;;4985075;28;20042;-92
2022/01/22 05:04:06;;;;;;;9.00;2.20;;;6.90;99.90;;;;;;4985981;28;20094;-92
2022/01/22 05:06:31;;;;;;;10.27;2.45;;;6.90;99.90;;;;;;4985556;28;20039;-91
2022/01/22 05:08:57;;;;;;;10.70;2.20;;;6.90;99.90;;;;;;4974885;28;20046;-89
2022/01/22 05:11:24;;;;;;;7.90;2.13;;;6.90;99.90;;;;;;4969889;28;20045;-91
2022/01/22 05:13:51;;;;;;;6.55;1.90;;;6.90;99.90;;;;;;4968208;28;20083;-91
2022/01/22 05:16:17;;;;;;;9.57;2.03;;;6.90;99.90;;;;;;4986642;28;20042;-92
2022/01/22 05:18:55;;;;;;;11.57;2.40;;;6.90;99.90;;;;;;4987210;28;20058;-91
2022/01/22 05:21:22;;;;;;;9.07;2.33;;;6.90;99.90;;;;;;5001468;28;20156;-88
2022/01/22 05:23:48;;;;;;;10.40;2.85;;;6.90;99.90;;;;;;5004918;28;20132;-88
2022/01/22 05:36:57;;;;;;;7.95;1.95;;;6.90;99.90;;;;;;4998763;28;20521;-90
2022/01/22 05:39:24;;;;;;;8.52;2.22;;;6.90;99.90;;;;;;4992299;28;20902;-91
2022/01/22 05:41:51;;;;;;;8.95;1.85;;;6.90;99.90;;;;;;5023922;28;20046;-89
2022/01/22 05:44:17;;;;;;;6.93;1.73;;;6.90;99.90;;;;;;5010372;28;20054;-91
2022/01/22 05:46:42;;;;;;;8.00;1.90;;;6.80;99.90;;;;;;5010360;28;20375;-92
2022/01/22 05:49:08;;;;;;;7.10;1.70;;;6.90;99.90;;;;;;4989820;28;20049;-89
2022/01/22 05:51:36;;;;;;;5.78;1.70;;;6.90;99.90;;;;;;4986864;28;20041;-90
2022/01/22 05:54:44;;;;;;;8.75;2.30;;;6.90;99.90;;;;;;5005262;28;20085;-92
2022/01/22 05:59:46;;;;;;;6.32;2.05;;;6.90;99.90;;;;;;5002133;28;20083;-90
2022/01/22 06:02:17;;;;;;;9.07;2.05;;;6.80;99.90;;;;;;5004363;28;20042;-90
2022/01/22 06:04:44;;;;;;;7.32;2.05;;;6.90;99.90;;;;;;5001648;28;20037;-90
2022/01/22 06:07:12;;;;;;;7.28;1.95;;;6.90;99.90;;;;;;5002966;28;20553;-91
2022/01/22 06:09:44;;;;;;;6.47;1.83;;;6.90;99.90;;;;;;4986419;28;20046;-89
2022/01/22 06:14:38;;;;;;;9.18;2.15;;;6.90;99.90;;;;;;5001771;28;20050;-90
2022/01/22 06:17:03;;;;;;;11.27;2.92;;;6.90;99.90;;;;;;5006809;28;20045;-90
2022/01/22 06:19:29;;;;;;;10.45;2.97;;;6.80;99.90;;;;;;5015025;28;20066;-90
2022/01/22 06:21:55;;;;;;;9.68;2.50;;;6.80;99.90;;;;;;4995368;28;20053;-91
2022/01/22 06:24:22;;;;;;;9.88;2.28;;;6.80;99.90;;;;;;4997410;28;20057;-91
2022/01/22 06:26:48;;;;;;;10.45;2.30;;;6.90;99.90;;;;;;4990973;28;20067;-91
2022/01/22 06:29:13;;;;;;;11.43;2.65;;;6.80;99.90;;;;;;4995307;28;20038;-89
2022/01/22 06:31:39;;;;;;;10.23;2.85;;;6.80;99.90;;;;;;4995063;28;20047;-93
2022/01/22 06:34:05;;;;;;;10.85;3.30;;;6.80;99.90;;;;;;4995889;28;20367;-89
2022/01/22 06:36:31;;;;;;;9.10;2.35;;;6.80;99.90;;;;;;4980744;28;20409;-92
2022/01/22 06:39:09;;;;;;;12.02;2.92;;;6.80;99.90;;;;;;4991250;28;20038;-91
2022/01/22 06:41:44;;;;;;;15.40;3.33;;;6.90;99.90;;;;;;4998339;28;20127;-90
2022/01/22 06:44:13;;;;;;;10.50;2.80;;;6.80;99.90;;;;;;4960248;28;20098;-91
2022/01/22 06:46:40;;;;;;;9.45;3.00;;;6.80;99.90;;;;;;4973630;28;20147;-92
2022/01/22 06:49:06;;;;;;;8.48;2.80;;;6.80;99.90;;;;;;5001532;28;20216;-91
2022/01/22 06:51:33;;;;;;;10.10;3.08;;;6.80;99.90;;;;;;4987392;28;20038;-91
2022/01/22 06:53:58;;;;;;;10.00;2.67;;;6.80;99.90;;;;;;4990151;28;20093;-91
2022/01/22 06:56:25;;;;;;;13.30;3.15;;;6.80;99.90;;;;;;4989370;28;20443;-91
2022/01/22 06:58:50;;;;;;;11.63;2.85;;;6.80;99.90;;;;;;4982998;28;20038;-91
2022/01/22 07:01:16;;;;;;;9.93;2.67;;;6.80;99.90;;;;;;4990367;28;20105;-90
2022/01/22 07:03:42;;;;;;;10.13;2.90;;;6.80;99.90;;;;;;4993262;28;20088;-92
2022/01/22 07:06:09;;;;;;;12.98;2.92;;;6.90;99.90;;;;;;4986649;28;20038;-91
2022/01/22 07:08:34;;;;;;;11.27;3.05;;;6.80;99.90;;;;;;4969747;28;20056;-92
2022/01/22 07:11:00;;;;;;;10.60;3.15;;;6.80;99.90;;;;;;4984698;28;20454;-90
2022/01/22 07:13:25;;;;;;;10.57;3.80;;;6.80;99.90;;;;;;4989715;28;20065;-90
2022/01/22 07:15:51;;;;;;;10.52;3.70;;;6.80;99.90;;;;;;4972369;28;20045;-89
2022/01/22 07:18:17;;;;;;;8.60;3.63;;;6.80;99.90;;;;;;4989414;28;20052;-88
2022/01/22 07:20:44;;;;;;;9.68;3.15;;;6.80;99.90;;;;;;5005273;28;20093;-90
2022/01/22 07:25:45;;;;;;;8.93;3.00;;;6.80;99.90;;;;;;5002983;28;20446;-84
2022/01/22 07:28:11;;;;;;;7.60;2.60;;;6.80;99.90;;;;;;5010313;28;20080;-83
2022/01/22 07:30:38;;;;;;;8.70;2.47;;;6.80;99.90;;;;;;4995048;28;20441;-88
2022/01/22 07:33:04;;;;;;;7.75;2.67;;;6.70;99.90;;;;;;5012319;28;20072;-88
2022/01/22 07:35:33;;;;;;;7.00;2.45;;;6.80;99.90;;;;;;5009841;28;20088;-88
2022/01/22 07:38:02;;;;;;;9.38;2.63;;;6.80;99.90;;;;;;5011264;28;20115;-88
2022/01/22 07:40:28;;;;;;;8.85;2.55;;;6.80;99.90;;;;;;5010800;28;20073;-88
2022/01/22 07:42:54;;;;;;;8.20;2.38;;;6.70;99.90;;;;;;5011306;28;20103;-87
2022/01/22 07:45:20;;;;;;;8.85;2.50;;;6.80;99.90;;;;;;4994192;28;20042;-88
2022/01/22 07:47:46;;;;;;;6.57;1.73;;;6.70;99.90;;;;;;5010344;28;20129;-87
2022/01/22 07:50:11;;;;;;;8.60;2.60;;;6.70;99.90;;;;;;4994834;28;20490;-87
2022/01/22 07:52:37;;;;;;;6.13;1.85;;;6.70;99.90;;;;;;4993931;28;20038;-87
2022/01/22 07:55:03;;;;;;;6.47;2.58;;;6.70;99.90;;;;;;4994708;28;20478;-87
2022/01/22 07:57:29;;;;;;;10.23;2.95;;;6.70;99.90;;;;;;5010985;28;20050;-87
2022/01/22 07:59:54;;;;;;;5.97;2.00;;;6.70;99.90;;;;;;5010899;28;20053;-87
2022/01/22 08:02:20;;;;;;;7.93;2.67;;;6.70;99.90;;;;;;5009777;28;20037;-88
2022/01/22 08:04:46;;;;;;;6.85;2.20;;;6.70;99.90;;;;;;4994887;28;20198;-87
2022/01/22 08:07:11;;;;;;;6.78;2.65;;;6.70;99.90;;;;;;5010214;28;20103;-88
2022/01/22 08:09:37;;;;;;;8.23;2.42;;;6.60;99.90;;;;;;5010198;28;20478;-88
2022/01/22 08:12:03;;;;;;;6.95;2.97;;;6.70;99.90;;;;;;5015007;28;20060;-88
2022/01/22 08:14:29;;;;;;;6.05;1.95;;;6.60;99.90;;;;;;5013453;28;20132;-87
2022/01/22 08:16:55;;;;;;;8.15;2.42;;;6.70;99.90;;;;;;5014143;28;20554;-88
2022/01/22 08:19:20;;;;;;;8.10;2.67;;;6.70;99.90;;;;;;5014484;28;20132;-87
2022/01/22 08:21:47;;;;;;;6.28;2.00;;;6.70;99.90;;;;;;5013464;28;20057;-88
2022/01/22 08:24:14;;;;;;;6.75;2.42;;;6.60;99.90;;;;;;5015064;28;20099;-88
2022/01/22 08:26:48;;;;;;;8.55;2.50;;;6.70;99.90;;;;;;5014804;28;20041;-88
2022/01/22 08:29:13;;;;;;;8.23;2.00;;;6.70;99.90;;;;;;4998853;28;20056;-88
2022/01/22 08:31:49;;;;;;;7.82;2.40;;;6.60;99.90;;;;;;5014190;28;20034;-87
2022/01/22 08:36:59;;;;;;;7.60;2.40;;;6.70;99.90;;;;;;5015974;28;20394;-88
2022/01/22 08:39:25;;;;;;;9.02;2.38;;;6.70;99.90;;;;;;5014063;28;20042;-88
2022/01/22 08:41:50;;;;;;;7.18;2.22;;;6.70;99.90;;;;;;5026502;28;20269;-87
2022/01/22 08:44:16;;;;;;;6.93;2.15;;;6.70;99.90;;;;;;5034990;28;20478;-87
2022/01/22 08:46:42;;;;;;;8.55;2.13;;;6.70;99.90;;;;;;5021733;28;20453;-87
2022/01/22 08:49:08;;;;;;;7.47;2.30;;;6.70;99.90;;;;;;5013732;28;20128;-88
2022/01/22 08:51:35;;;;;;;9.50;2.22;;;6.80;99.90;;;;;;5012990;28;20047;-88
2022/01/22 08:54:01;;;;;;;8.32;2.25;;;6.80;99.90;;;;;;5014011;28;20046;-88
2022/01/22 08:56:30;;;;;;;7.80;2.85;;;6.70;99.90;;;;;;4998198;28;20041;-88
2022/01/22 08:58:56;;;;;;;7.95;2.42;;;6.80;99.90;;;;;;4998297;28;20444;-87
2022/01/22 09:01:23;;;;;;;10.05;3.05;;;6.80;99.90;;;;;;4997248;28;20049;-88
2022/01/22 09:03:49;;;;;;;9.27;2.50;;;6.80;99.90;;;;;;5013235;28;20048;-88
2022/01/22 09:06:17;;;;;;;8.95;2.90;;;6.80;99.90;;;;;;5013961;28;20048;-87
2022/01/22 09:08:45;;;;;;;8.95;3.35;;;6.80;99.90;;;;;;5013647;28;20049;-87
2022/01/22 09:11:10;;;;;;;8.80;3.60;;;6.80;99.90;;;;;;5009019;28;20061;-88
2022/01/22 09:13:36;;;;;;;8.05;3.20;;;6.80;99.90;;;;;;4994358;28;20041;-88
2022/01/22 09:16:02;;;;;;;10.93;3.50;;;6.80;99.90;;;;;;4990530;28;20460;-87
2022/01/22 09:18:28;;;;;;;8.60;3.22;;;6.80;99.90;;;;;;4996849;28;20054;-87
2022/01/22 09:23:19;;;;;;;11.55;4.03;;;6.80;99.90;;;;;;5012015;28;20494;-87
2022/01/22 09:25:45;;;;;;;8.50;3.53;;;6.80;99.90;;;;;;5012053;28;20049;-87
2022/01/22 09:28:12;;;;;;;12.82;4.40;;;6.90;99.90;;;;;;4998585;28;20077;-87
2022/01/22 09:30:39;;;;;;;11.70;4.35;;;6.90;99.90;;;;;;5012605;28;20068;-88
2022/01/22 09:33:05;;;;;;;11.23;4.28;;;6.90;99.90;;;;;;4998433;28;20046;-87
2022/01/22 09:35:31;;;;;;;11.68;4.00;;;6.90;99.90;;;;;;5012581;28;20049;-87
2022/01/22 09:37:57;;;;;;;11.60;4.18;;;6.90;99.90;;;;;;4997393;28;20045;-87
2022/01/22 09:40:25;;;;;;;10.13;4.55;;;6.90;99.90;;;;;;5013833;28;20076;-87
2022/01/22 09:42:50;;;;;;;12.57;4.00;;;6.90;99.90;;;;;;5013786;28;20048;-88
2022/01/22 09:45:17;;;;;;;10.13;3.58;;;6.90;99.90;;;;;;5012626;28;20501;-87
2022/01/22 09:47:48;;;;;;;13.57;3.78;;;6.90;99.90;;;;;;5012349;28;20069;-87
2022/01/22 09:50:15;;;;;;;12.73;3.80;;;6.90;99.90;;;;;;5014320;28;20402;-87
2022/01/22 09:52:41;;;;;;;9.90;4.07;;;6.90;99.90;;;;;;4995938;28;20064;-88
2022/01/22 09:55:08;;;;;;;14.13;4.30;;;7.00;99.90;;;;;;4996980;28;20394;-87
2022/01/22 09:57:36;;;;;;;10.85;4.07;;;7.00;99.90;;;;;;4996708;28;20232;-88
2022/01/22 10:00:02;;;;;;;11.68;4.10;;;7.00;99.90;;;;;;4996513;28;20453;-88
2022/01/22 10:02:27;;;;;;;11.77;3.92;;;7.00;99.90;;;;;;5012513;28;20045;-87
2022/01/22 10:04:53;;;;;;;13.30;4.32;;;7.00;99.90;;;;;;5011961;28;20064;-87
2022/01/22 10:07:24;;;;;;;11.75;4.03;;;7.10;99.90;;;;;;4995591;28;20417;-88
2022/01/22 10:10:05;;;;;;;13.95;4.20;;;7.10;99.90;;;;;;4993000;28;20034;-87
2022/01/22 10:12:43;;;;;;;13.18;4.10;;;7.10;99.90;;;;;;5011729;28;20049;-87
2022/01/22 10:15:10;;;;;;;11.52;3.70;;;7.10;99.90;;;;;;4995413;28;20121;-87
2022/01/22 10:17:56;;;;;;;12.98;4.35;;;7.10;99.90;;;;;;4995637;28;20042;-87
2022/01/22 10:20:24;;;;;;;14.07;4.97;;;7.20;99.90;;;;;;4996783;28;20067;-87
2022/01/22 10:22:52;;;;;;;12.52;4.00;;;7.10;99.90;;;;;;4996392;28;20128;-87
2022/01/22 10:25:30;;;;;;;11.23;3.70;;;7.10;99.90;;;;;;4996752;28;20128;-88
2022/01/22 10:28:03;;;;;;;13.68;3.97;;;7.10;99.90;;;;;;4996741;28;20450;-87
2022/01/22 10:30:40;;;;;;;11.35;3.90;;;7.10;99.90;;;;;;5012275;28;20042;-87
2022/01/22 10:33:28;;;;;;;13.40;4.13;;;7.10;99.90;;;;;;5012448;28;20055;-87
2022/01/22 10:36:27;;;;;;;13.40;4.00;;;7.10;99.90;;;;;;5012278;28;20133;-87
2022/01/22 10:38:55;;;;;;;13.77;4.30;;;7.10;99.90;;;;;;4970549;28;20054;-87
2022/01/22 10:41:42;;;;;;;12.13;4.10;;;7.20;99.90;;;;;;4993448;28;20057;-87
2022/01/22 10:44:14;;;;;;;15.35;4.10;;;7.20;99.90;;;;;;5014815;28;20140;-87
2022/01/22 10:46:50;;;;;;;13.75;3.95;;;7.20;99.90;;;;;;5012258;28;20049;-87
2022/01/22 10:49:19;;;;;;;13.82;3.75;;;7.20;99.90;;;;;;5010943;28;20171;-87
2022/01/22 10:51:56;;;;;;;13.55;3.80;;;7.20;99.90;;;;;;5011501;28;20045;-88
2022/01/22 10:54:30;;;;;;;10.50;3.80;;;7.30;99.90;;;;;;4995984;28;20390;-87
2022/01/22 10:57:10;;;;;;;11.38;3.72;;;7.30;99.90;;;;;;4996074;28;20056;-87
2022/01/22 10:59:36;;;;;;;13.52;4.15;;;7.30;99.90;;;;;;5011248;28;20060;-88
2022/01/22 11:02:04;;;;;;;10.63;3.50;;;7.40;99.90;;;;;;5010665;28;20402;-87
2022/01/22 11:04:40;;;;;;;16.50;4.68;;;7.40;99.90;;;;;;5011878;28;20049;-88
2022/01/22 11:07:08;;;;;;;15.18;4.20;;;7.40;99.90;;;;;;5012275;28;20038;-87
2022/01/22 11:09:35;;;;;;;13.40;5.00;;;7.40;99.90;;;;;;5011111;28;20053;-87
2022/01/22 11:12:03;;;;;;;12.25;4.20;;;7.40;99.90;;;;;;5000267;28;20038;-89
2022/01/22 11:14:30;;;;;;;10.40;3.65;;;7.40;99.90;;;;;;4983457;28;20042;-88
2022/01/22 11:16:57;;;;;;;11.20;3.83;;;7.40;99.90;;;;;;5012455;28;20112;-87
2022/01/22 11:19:30;;;;;;;13.63;3.83;;;7.50;99.90;;;;;;5011019;28;20044;-88
2022/01/22 11:22:01;;;;;;;11.95;3.80;;;7.40;99.90;;;;;;4996433;28;20409;-87
2022/01/22 11:24:27;;;;;;;12.38;3.85;;;7.40;99.90;;;;;;4993880;28;20042;-87
2022/01/22 11:26:59;;;;;;;11.70;4.00;;;7.50;99.90;;;;;;4995178;28;20045;-87
2022/01/22 11:29:29;;;;;;;11.45;4.00;;;7.40;99.90;;;;;;5010745;28;20056;-88
2022/01/22 11:31:56;;;;;;;10.98;3.88;;;7.40;99.90;;;;;;5011077;28;20486;-87
2022/01/22 11:34:25;;;;;;;14.88;6.15;;;7.40;99.90;;;;;;5011231;28;20037;-87
2022/01/22 11:37:16;;;;;;;15.25;6.47;;;7.40;99.90;;;;;;5010848;28;20049;-87
2022/01/22 11:39:42;;;;;;;11.68;4.30;;;7.40;99.90;;;;;;4975205;28;20521;-87
2022/01/22 11:42:08;;;;;;;11.98;4.47;;;7.40;99.90;;;;;;4994600;28;20128;-87
2022/01/22 11:44:51;;;;;;;12.90;5.03;;;7.40;99.90;;;;;;5010620;28;20397;-87
2022/01/22 11:47:20;;;;;;;14.30;4.22;;;7.50;99.90;;;;;;5011058;28;20092;-87
2022/01/22 11:50:11;;;;;;;13.32;4.80;;;7.40;99.90;;;;;;5009458;28;20049;-87
2022/01/22 11:52:39;;;;;;;12.52;5.55;;;7.40;99.90;;;;;;4994435;28;20037;-86
2022/01/22 11:55:14;;;;;;;14.93;5.20;;;7.40;99.90;;;;;;5009567;28;20181;-87
2022/01/22 11:57:42;;;;;;;17.13;5.32;;;7.30;99.90;;;;;;4994909;28;20045;-88
2022/01/22 12:00:27;;;;;;;15.20;6.30;;;7.30;99.90;;;;;;4994160;28;20041;-87
2022/01/22 12:03:12;;;;;;;16.92;6.07;;;7.30;99.90;;;;;;5009338;28;20045;-87
2022/01/22 12:05:53;;;;;;;13.88;5.95;;;7.30;99.90;;;;;;5011215;28;20041;-87
2022/01/22 12:08:20;;;;;;;13.43;6.25;;;7.30;99.90;;;;;;5011214;28;20522;-87
2022/01/22 12:16:36;;;;;;;15.15;6.35;;;7.30;99.90;;;;;;5004294;28;20056;-87
2022/01/22 12:19:04;;;;;;;20.15;7.65;;;7.40;99.90;;;;;;5006491;28;20082;-87
2022/01/22 12:21:35;;;;;;;17.88;7.38;;;7.30;99.90;;;;;;5010445;28;20084;-87
2022/01/22 12:24:03;;;;;;;18.45;8.23;;;7.40;99.90;;;;;;4995461;28;20041;-87
2022/01/22 12:26:47;;;;;;;17.60;8.35;;;7.30;99.90;;;;;;5010562;28;20132;-87
2022/01/22 12:29:34;;;;;;;17.65;10.18;;;7.40;99.90;;;;;;5010676;28;20037;-87
2022/01/22 12:32:18;;;;;;;22.52;11.23;;;7.40;99.90;;;;;;5016737;28;20056;-87
2022/01/22 12:35:06;;;;;;;20.15;9.23;;;7.40;99.90;;;;;;5027488;28;20049;-87
2022/01/22 12:37:32;;;;;;;20.73;12.95;;;7.40;99.90;;;;;;5004497;28;20398;-87
2022/01/22 12:39:58;;;;;;;17.52;9.43;;;7.20;99.90;;;;;;5011286;28;20037;-87
2022/01/22 12:42:54;;;;;;;16.23;8.40;;;7.40;99.90;;;;;;5011924;28;20576;-89
2022/01/22 12:45:22;;;;;;;16.02;7.32;;;7.40;99.90;;;;;;5010684;28;20076;-87
2022/01/22 12:47:49;;;;;;;14.65;6.97;;;7.40;99.90;;;;;;5010506;28;20103;-87
2022/01/22 12:50:15;;;;;;;17.90;7.75;;;7.40;99.90;;;;;;5011524;28;20041;-87
2022/01/22 12:52:46;;;;;;;13.70;6.03;;;7.40;99.90;;;;;;4993443;28;20060;-87
2022/01/22 12:55:17;;;;;;;14.65;6.00;;;7.40;99.90;;;;;;5010870;28;20041;-88
2022/01/22 12:57:43;;;;;;;17.48;7.50;;;7.40;99.90;;;;;;5013383;28;20061;-87
2022/01/22 13:00:13;;;;;;;15.27;6.10;;;7.40;99.90;;;;;;4997066;28;20045;-88
2022/01/22 13:02:46;;;;;;;14.27;6.00;;;7.50;99.90;;;;;;5013306;28;20191;-87
2022/01/22 13:05:19;;;;;;;17.25;8.88;;;7.50;99.90;;;;;;4998185;28;20037;-87
2022/01/22 13:07:52;;;;;;;14.68;5.57;;;7.50;99.90;;;;;;5013277;28;20498;-86
2022/01/22 13:10:20;;;;;;;12.43;4.95;;;7.60;99.90;;;;;;5013372;28;20091;-88
2022/01/22 13:12:46;;;;;;;17.75;5.25;;;7.60;99.90;;;;;;4996481;28;20439;-87
2022/01/22 13:15:17;;;;;;;14.85;6.60;;;7.60;99.90;;;;;;4999722;28;20126;-87
2022/01/22 13:17:51;;;;;;;14.88;8.13;;;7.60;99.90;;;;;;5012957;28;20107;-87
2022/01/22 13:20:26;;;;;;;13.35;5.50;;;7.60;99.90;;;;;;5013652;28;20068;-87
2022/01/22 13:22:52;;;;;;;14.57;5.43;;;7.60;99.90;;;;;;5013898;28;20125;-87
2022/01/22 13:25:19;;;;;;;13.82;5.80;;;7.60;99.90;;;;;;5014309;28;20520;-87
2022/01/22 13:28:02;;;;;;;12.10;4.70;;;7.60;99.90;;;;;;4996992;28;20049;-87
2022/01/22 13:30:33;;;;;;;12.60;4.90;;;7.60;99.90;;;;;;4996792;28;20127;-87
2022/01/22 13:33:06;;;;;;;12.70;5.72;;;7.60;99.90;;;;;;5014342;28;20049;-87
2022/01/22 13:38:32;;;;;;;10.95;4.47;;;7.60;99.90;;;;;;5012680;28;20445;-87
2022/01/22 13:49:33;;;;;;;11.75;4.35;;;7.50;99.90;;;;;;5013040;28;20046;-88
2022/01/22 13:52:03;;;;;;;11.05;4.13;;;7.50;99.90;;;;;;4997599;28;20108;-87
2022/01/22 13:54:41;;;;;;;11.23;4.28;;;7.50;99.90;;;;;;5013103;28;20440;-88
2022/01/22 13:57:10;;;;;;;12.23;4.93;;;7.50;99.90;;;;;;5013304;28;20099;-88
2022/01/22 13:59:55;;;;;;;13.18;5.80;;;7.50;99.90;;;;;;5011743;28;20062;-87
2022/01/22 14:04:59;;;;;;;15.02;6.07;;;7.50;99.90;;;;;;5012510;28;20046;-87
2022/01/22 14:07:31;;;;;;;13.75;5.30;;;7.40;99.90;;;;;;5011418;28;20095;-87
2022/01/22 14:10:13;;;;;;;11.82;4.22;;;7.40;99.90;;;;;;4996253;28;20048;-87
2022/01/22 14:12:45;;;;;;;12.25;4.68;;;7.40;99.90;;;;;;5009147;28;20048;-89
2022/01/22 14:15:14;;;;;;;12.02;4.82;;;7.40;99.90;;;;;;5013165;28;20045;-88
2022/01/22 14:18:19;;;;;;;14.45;4.72;;;7.40;99.90;;;;;;5011149;28;20136;-87
2022/01/22 14:20:46;;;;;;;22.98;11.63;;;7.40;99.90;;;;;;5000221;28;20512;-87
2022/01/22 14:23:31;;;;;;;13.68;6.72;;;7.30;99.90;;;;;;5013480;28;20441;-87
2022/01/22 14:25:58;;;;;;;10.57;4.50;;;7.30;99.90;;;;;;5013309;28;20406;-87
2022/01/22 14:28:45;;;;;;;10.65;4.07;;;7.30;99.90;;;;;;5012496;28;20453;-87
2022/01/22 14:31:30;;;;;;;10.98;3.35;;;7.30;99.90;;;;;;4957514;28;20049;-87
2022/01/22 14:34:11;;;;;;;11.13;4.75;;;7.20;99.90;;;;;;5009523;28;20073;-87
2022/01/22 14:36:42;;;;;;;10.80;3.40;;;7.20;99.90;;;;;;4979980;28;20410;-87
2022/01/22 14:44:56;;;;;;;10.57;3.30;;;7.20;99.90;;;;;;4994837;28;20053;-88
2022/01/22 14:47:27;;;;;;;10.45;4.05;;;7.20;99.90;;;;;;4996482;28;20427;-87
2022/01/22 14:50:04;;;;;;;;;;;7.20;99.90;;;;;;4996163;28;20060;-87
2022/01/22 14:52:29;;;;;;;13.43;4.82;;;7.10;99.90;;;;;;5028032;28;20274;-88